createdAt,value
2018-12-12T00:01:29.785Z,3.01
2018-12-12T00:04:12.463Z,3.08
2018-12-12T00:06:49.063Z,3.16
2018-12-12T00:09:27.447Z,3.21
2018-12-12T00:12:05.311Z,3.28
2018-12-12T00:14:43.491Z,3.34
2018-12-12T00:17:43.976Z,3.40
2018-12-12T00:20:21.961Z,3.42
2018-12-12T00:22:59.412Z,3.45
2018-12-12T00:25:36.848Z,3.49
2018-12-12T00:28:14.213Z,3.52
2018-12-12T00:30:50.955Z,3.55
2018-12-12T00:33:28.370Z,3.58
2018-12-12T00:36:09.566Z,3.61
2018-12-12T00:38:46.968Z,3.64
2018-12-12T00:41:27.728Z,3.67
2018-12-12T00:44:05.390Z,3.72
2018-12-12T00:46:44.855Z,3.74
2018-12-12T00:49:23.246Z,3.75
2018-12-12T00:52:01.309Z,3.74
2018-12-12T00:54:39.883Z,3.74
2018-12-12T00:57:17.651Z,3.70
2018-12-12T00:59:55.501Z,3.66
2018-12-12T01:02:32.995Z,3.65
2018-12-12T01:05:11.068Z,3.63
2018-12-12T01:07:48.763Z,3.61
2018-12-12T01:10:28.420Z,3.56
2018-12-12T01:13:07.676Z,3.47
2018-12-12T01:15:44.693Z,3.37
2018-12-12T01:18:24.284Z,3.34
2018-12-12T01:21:01.478Z,3.34
2018-12-12T01:23:39.944Z,3.37
2018-12-12T01:26:21.423Z,3.39
2018-12-12T01:29:00.061Z,3.41
2018-12-12T01:31:42.034Z,3.38
2018-12-12T01:37:11.549Z,3.12
2018-12-12T01:39:50.531Z,2.96
2018-12-12T01:42:29.946Z,2.85
2018-12-12T01:45:07.458Z,2.77
2018-12-12T01:47:46.104Z,2.72
2018-12-12T01:53:14.867Z,2.58
2018-12-12T01:55:50.905Z,2.54
2018-12-12T01:58:29.021Z,2.56
2018-12-12T02:01:07.481Z,2.62
2018-12-12T02:03:46.313Z,2.73
2018-12-12T02:06:31.064Z,2.84
2018-12-12T02:09:10.694Z,2.98
2018-12-12T02:11:48.848Z,3.12
2018-12-12T02:14:29.870Z,3.23
2018-12-12T02:17:05.718Z,3.32
2018-12-12T02:19:45.953Z,3.43
2018-12-12T02:22:23.546Z,3.50
2018-12-12T02:25:04.321Z,3.57
2018-12-12T02:27:43.841Z,3.62
2018-12-12T02:30:21.816Z,3.66
2018-12-12T02:33:00.021Z,3.69
2018-12-12T02:35:38.611Z,3.73
2018-12-12T02:38:17.235Z,3.74
2018-12-12T02:40:58.129Z,3.74
2018-12-12T02:43:36.077Z,3.76
2018-12-12T02:49:29.441Z,3.79
2018-12-12T02:52:08.632Z,3.84
2018-12-12T02:54:47.613Z,3.86
2018-12-12T02:57:26.485Z,3.88
2018-12-12T03:00:07.225Z,3.89
2018-12-12T03:02:45.148Z,3.89
2018-12-12T03:05:23.545Z,3.91
2018-12-12T03:08:00.949Z,3.92
2018-12-12T03:10:38.444Z,3.93
2018-12-12T03:13:18.200Z,3.95
2018-12-12T03:15:55.660Z,3.97
2018-12-12T03:18:33.967Z,3.97
2018-12-12T03:21:14.674Z,3.97
2018-12-12T03:23:52.861Z,4.00
2018-12-12T03:26:32.236Z,4.01
2018-12-12T03:29:10.518Z,4.02
2018-12-12T03:31:47.582Z,4.01
2018-12-12T03:34:25.263Z,4.00
2018-12-12T03:37:02.522Z,3.97
2018-12-12T03:39:41.446Z,3.96
2018-12-12T03:42:20.974Z,3.97
2018-12-12T03:44:58.125Z,3.96
2018-12-12T03:47:36.243Z,3.96
2018-12-12T03:50:13.644Z,3.97
2018-12-12T03:52:51.681Z,3.96
2018-12-12T03:55:27.475Z,3.96
2018-12-12T03:58:03.536Z,3.97
2018-12-12T04:00:41.970Z,3.93
2018-12-12T04:03:19.596Z,3.97
2018-12-12T04:05:57.883Z,3.97
2018-12-12T04:08:31.447Z,3.99
2018-12-12T04:11:09.237Z,4.01
2018-12-12T04:13:47.334Z,4.00
2018-12-12T04:16:24.339Z,4.02
2018-12-12T04:19:02.988Z,4.04
2018-12-12T04:21:41.872Z,4.07
2018-12-12T04:24:19.175Z,4.09
2018-12-12T04:26:56.504Z,4.10
2018-12-12T04:29:35.240Z,4.12
2018-12-12T04:32:11.886Z,4.14
2018-12-12T04:34:46.939Z,4.14
2018-12-12T04:37:24.089Z,4.16
2018-12-12T04:39:59.169Z,4.17
2018-12-12T04:42:37.086Z,4.20
2018-12-12T04:45:13.700Z,4.22
2018-12-12T04:47:51.603Z,4.24
2018-12-12T04:50:30.885Z,4.25
2018-12-12T04:53:08.504Z,4.27
2018-12-12T04:55:46.369Z,4.28
2018-12-12T04:58:25.120Z,4.29
2018-12-12T05:00:55.974Z,4.28
2018-12-12T05:03:32.847Z,4.27
2018-12-12T05:06:10.476Z,4.23
2018-12-12T05:08:47.368Z,4.20
2018-12-12T05:11:25.145Z,4.17
2018-12-12T05:14:03.483Z,4.15
2018-12-12T05:19:35.062Z,4.15
2018-12-12T05:22:15.830Z,4.14
2018-12-12T05:24:55.277Z,4.14
2018-12-12T05:27:32.956Z,4.12
2018-12-12T05:30:10.083Z,4.10
2018-12-12T05:32:47.419Z,4.06
2018-12-12T05:35:24.508Z,4.03
2018-12-12T05:38:02.635Z,3.98
2018-12-12T05:40:40.366Z,3.87
2018-12-12T05:43:17.577Z,3.79
2018-12-12T05:45:56.049Z,3.70
2018-12-12T05:48:37.759Z,3.60
2018-12-12T05:51:15.155Z,3.48
2018-12-12T05:53:53.571Z,3.38
2018-12-12T05:56:30.557Z,3.29
2018-12-12T06:01:58.663Z,3.15
2018-12-12T06:04:35.397Z,3.03
2018-12-12T06:07:10.565Z,2.93
2018-12-12T06:09:46.214Z,2.83
2018-12-12T06:12:20.638Z,2.71
2018-12-12T06:14:59.303Z,2.61
2018-12-12T06:17:36.585Z,2.47
2018-12-12T06:22:51.504Z,2.35
2018-12-12T06:25:29.135Z,2.30
2018-12-12T06:28:03.847Z,2.23
2018-12-12T06:30:40.149Z,2.17
2018-12-12T06:33:18.794Z,2.12
2018-12-12T06:35:55.293Z,2.08
2018-12-12T06:38:34.804Z,2.12
2018-12-12T06:41:10.733Z,2.20
2018-12-12T06:43:46.060Z,2.25
2018-12-12T06:46:22.537Z,2.32
2018-12-12T06:49:01.573Z,2.34
2018-12-12T06:51:40.034Z,2.32
2018-12-12T06:54:18.367Z,2.30
2018-12-12T06:56:55.044Z,2.29
2018-12-12T06:59:29.863Z,2.26
2018-12-12T07:02:04.694Z,2.22
2018-12-12T07:04:40.339Z,2.12
2018-12-12T07:07:19.593Z,2.08
2018-12-12T07:09:56.374Z,2.02
2018-12-12T07:12:34.602Z,2.03
2018-12-12T07:15:08.106Z,2.10
2018-12-12T07:17:41.526Z,2.14
2018-12-12T07:20:14.027Z,2.14
2018-12-12T07:22:52.830Z,2.08
2018-12-12T07:25:32.112Z,1.99
2018-12-12T07:28:11.162Z,1.88
2018-12-12T07:30:48.463Z,1.80
2018-12-12T07:33:26.599Z,1.74
2018-12-12T07:36:04.380Z,1.66
2018-12-12T07:38:43.603Z,1.64
2018-12-12T07:41:23.023Z,1.62
2018-12-12T07:44:01.323Z,1.61
2018-12-12T07:46:39.563Z,1.65
2018-12-12T07:52:10.020Z,1.83
2018-12-12T07:54:46.677Z,1.94
2018-12-12T07:57:24.869Z,2.04
2018-12-12T08:00:02.887Z,2.17
2018-12-12T08:02:40.838Z,2.27
2018-12-12T08:05:18.412Z,2.38
2018-12-12T08:07:55.744Z,2.48
2018-12-12T08:10:32.903Z,2.57
2018-12-12T08:13:11.475Z,2.66
2018-12-12T08:15:50.380Z,2.75
2018-12-12T08:18:27.255Z,2.80
2018-12-12T08:21:04.594Z,2.88
2018-12-12T08:26:29.249Z,3.04
2018-12-12T08:29:06.676Z,3.10
2018-12-12T08:34:31.703Z,3.24
2018-12-12T08:37:08.691Z,3.30
2018-12-12T08:42:33.593Z,3.45
2018-12-12T08:45:10.567Z,3.51
2018-12-12T08:47:46.451Z,3.55
2018-12-12T08:50:24.437Z,3.64
2018-12-12T08:53:02.247Z,3.69
2018-12-12T08:55:38.845Z,3.76
2018-12-12T08:58:18.770Z,3.84
2018-12-12T09:00:55.538Z,3.91
2018-12-12T09:03:33.319Z,3.99
2018-12-12T09:06:11.066Z,4.06
2018-12-12T09:08:47.504Z,4.13
2018-12-12T09:11:25.544Z,4.21
2018-12-12T09:14:03.141Z,4.28
2018-12-12T09:16:39.943Z,4.37
2018-12-12T09:19:16.324Z,4.47
2018-12-12T09:24:40.496Z,4.65
2018-12-12T09:27:18.379Z,4.71
2018-12-12T09:29:57.616Z,4.77
2018-12-12T09:32:36.213Z,4.85
2018-12-12T09:35:13.840Z,4.93
2018-12-12T09:37:51.127Z,5.01
2018-12-12T09:40:28.303Z,5.09
2018-12-12T09:43:06.537Z,5.19
2018-12-12T09:45:44.444Z,5.25
2018-12-12T09:51:28.552Z,5.40
2018-12-12T09:54:06.370Z,5.46
2018-12-12T09:59:37.021Z,5.60
2018-12-12T10:02:15.792Z,5.63
2018-12-12T10:04:52.436Z,5.69
2018-12-12T10:07:29.312Z,5.72
2018-12-12T10:10:09.253Z,5.78
2018-12-12T10:12:48.799Z,5.85
2018-12-12T10:15:28.054Z,5.91
2018-12-12T10:18:06.234Z,5.98
2018-12-12T10:20:43.898Z,6.05
2018-12-12T10:23:22.226Z,6.10
2018-12-12T10:26:02.209Z,6.17
2018-12-12T10:28:40.187Z,6.23
2018-12-12T10:31:19.310Z,6.27
2018-12-12T10:33:57.237Z,6.31
2018-12-12T10:36:36.787Z,6.37
2018-12-12T10:39:18.375Z,6.40
2018-12-12T10:41:56.303Z,6.44
2018-12-12T10:44:34.430Z,6.51
2018-12-12T10:47:12.698Z,6.55
2018-12-12T10:49:50.522Z,6.55
2018-12-12T10:52:28.088Z,6.65
2018-12-12T10:55:05.675Z,6.72
2018-12-12T10:57:46.192Z,6.77
2018-12-12T11:00:24.772Z,6.82
2018-12-12T11:03:06.147Z,6.91
2018-12-12T11:05:45.442Z,6.97
2018-12-12T11:08:24.538Z,6.99
2018-12-12T11:11:04.523Z,7.01
2018-12-12T11:13:44.397Z,7.03
2018-12-12T11:16:22.271Z,7.09
2018-12-12T11:19:02.637Z,7.12
2018-12-12T11:21:40.699Z,7.12
2018-12-12T11:24:18.203Z,7.16
2018-12-12T11:26:54.307Z,7.19
2018-12-12T11:29:30.092Z,7.17
2018-12-12T11:32:08.250Z,7.16
2018-12-12T11:34:49.364Z,7.15
2018-12-12T11:37:26.007Z,7.15
2018-12-12T11:40:04.087Z,7.15
2018-12-12T11:45:28.232Z,7.18
2018-12-12T11:48:04.685Z,7.20
2018-12-12T11:50:41.445Z,7.19
2018-12-12T11:53:21.783Z,7.17
2018-12-12T11:55:59.538Z,7.16
2018-12-12T11:58:40.001Z,7.17
2018-12-12T12:01:17.360Z,7.19
2018-12-12T12:03:56.860Z,7.21
2018-12-12T12:06:34.700Z,7.21
2018-12-12T12:09:15.511Z,7.18
2018-12-12T12:11:50.519Z,7.20
2018-12-12T12:14:28.603Z,7.21
2018-12-12T12:17:07.097Z,7.21
2018-12-12T12:19:45.397Z,7.20
2018-12-12T12:22:25.838Z,7.19
2018-12-12T12:25:05.329Z,7.18
2018-12-12T12:27:43.254Z,7.17
2018-12-12T12:30:21.492Z,7.15
2018-12-12T12:33:01.105Z,7.12
2018-12-12T12:35:39.108Z,7.11
2018-12-12T12:38:17.027Z,7.09
2018-12-12T12:40:55.395Z,7.07
2018-12-12T12:43:32.722Z,7.07
2018-12-12T12:46:10.497Z,7.08
2018-12-12T12:48:48.818Z,7.07
2018-12-12T12:51:29.596Z,7.04
2018-12-12T12:54:06.528Z,7.04
2018-12-12T12:56:45.788Z,7.04
2018-12-12T12:59:24.878Z,7.04
2018-12-12T13:02:02.832Z,7.03
2018-12-12T13:04:40.706Z,7.02
2018-12-12T13:07:19.626Z,7.00
2018-12-12T13:09:57.597Z,6.98
2018-12-12T13:12:34.191Z,6.97
2018-12-12T13:15:11.585Z,6.98
2018-12-12T13:17:48.771Z,6.97
2018-12-12T13:20:27.119Z,6.94
2018-12-12T13:23:04.948Z,6.94
2018-12-12T13:25:42.734Z,6.93
2018-12-12T13:28:20.621Z,6.92
2018-12-12T13:30:58.868Z,6.91
2018-12-12T13:33:37.304Z,6.91
2018-12-12T13:36:15.317Z,6.89
2018-12-12T13:38:54.563Z,6.89
2018-12-12T13:41:34.127Z,6.83
2018-12-12T13:44:11.779Z,6.77
2018-12-12T13:46:47.406Z,6.72
2018-12-12T13:49:32.432Z,6.64
2018-12-12T13:52:10.620Z,6.59
2018-12-12T13:54:48.613Z,6.55
2018-12-12T13:57:27.952Z,6.55
2018-12-12T14:00:05.676Z,6.53
2018-12-12T14:02:43.743Z,6.48
2018-12-12T14:05:21.413Z,6.44
2018-12-12T14:07:58.182Z,6.41
2018-12-12T14:10:35.777Z,6.39
2018-12-12T14:13:15.474Z,6.37
2018-12-12T14:15:53.330Z,6.33
2018-12-12T14:18:30.592Z,6.30
2018-12-12T14:21:07.846Z,6.24
2018-12-12T14:23:46.142Z,6.16
2018-12-12T14:26:22.863Z,5.98
2018-12-12T14:28:58.444Z,5.76
2018-12-12T14:31:37.389Z,5.53
2018-12-12T14:34:14.992Z,5.34
2018-12-12T14:36:48.037Z,5.15
2018-12-12T14:39:24.072Z,4.99
2018-12-12T14:41:58.638Z,4.86
2018-12-12T14:44:34.180Z,4.71
2018-12-12T14:47:12.376Z,4.56
2018-12-12T14:49:49.129Z,4.44
2018-12-12T14:52:27.739Z,4.30
2018-12-12T14:55:03.795Z,4.18
2018-12-12T14:57:40.823Z,4.08
2018-12-12T15:00:17.744Z,4.00
2018-12-12T15:02:54.693Z,3.90
2018-12-12T15:05:32.222Z,3.82
2018-12-12T15:08:08.102Z,3.74
2018-12-12T15:10:44.153Z,3.64
2018-12-12T15:13:19.665Z,3.57
2018-12-12T15:15:56.901Z,3.46
2018-12-12T15:18:35.133Z,3.39
2018-12-12T15:26:15.285Z,3.12
2018-12-12T15:28:52.216Z,3.05
2018-12-12T15:31:30.496Z,2.97
2018-12-12T15:34:07.982Z,2.91
2018-12-12T15:36:44.787Z,2.84
2018-12-12T15:39:21.835Z,2.76
2018-12-12T15:41:57.067Z,2.67
2018-12-12T15:44:34.400Z,2.63
2018-12-12T15:47:10.796Z,2.57
2018-12-12T15:49:49.899Z,2.52
2018-12-12T15:52:27.742Z,2.48
2018-12-12T15:55:03.132Z,2.43
2018-12-12T15:57:42.117Z,2.36
2018-12-12T16:00:19.739Z,2.32
2018-12-12T16:02:52.721Z,2.25
2018-12-12T16:05:34.850Z,2.23
2018-12-12T16:08:10.162Z,2.20
2018-12-12T16:10:47.463Z,2.17
2018-12-12T16:13:24.581Z,2.13
2018-12-12T16:16:01.476Z,2.12
2018-12-12T16:18:38.973Z,2.12
2018-12-12T16:21:17.008Z,2.08
2018-12-12T16:27:16.038Z,2.05
2018-12-12T16:29:53.254Z,2.13
2018-12-12T16:32:36.974Z,2.25
2018-12-12T16:35:15.767Z,2.43
2018-12-12T16:37:52.781Z,2.59
2018-12-12T16:40:30.227Z,2.79
2018-12-12T16:43:17.742Z,2.93
2018-12-12T16:48:34.063Z,3.30
2018-12-12T16:51:11.266Z,3.38
2018-12-12T16:53:46.328Z,3.49
2018-12-12T16:56:21.563Z,3.56
2018-12-12T16:58:56.507Z,3.64
2018-12-12T17:01:31.040Z,3.66
2018-12-12T17:04:06.238Z,3.81
2018-12-12T17:06:43.034Z,3.89
2018-12-12T17:12:06.852Z,4.00
2018-12-12T17:14:41.989Z,4.06
2018-12-12T17:17:19.191Z,4.11
2018-12-12T17:19:57.427Z,4.13
2018-12-12T17:22:34.729Z,4.17
2018-12-12T17:25:11.413Z,4.21
2018-12-12T17:27:51.538Z,4.25
2018-12-12T17:30:28.348Z,4.28
2018-12-12T17:33:07.686Z,4.30
2018-12-12T17:35:45.134Z,4.33
2018-12-12T17:38:22.748Z,4.35
2018-12-12T17:41:00.349Z,4.37
2018-12-12T17:43:39.793Z,4.40
2018-12-12T17:46:16.888Z,4.42
2018-12-12T17:48:51.379Z,4.44
2018-12-12T17:54:24.877Z,4.48
2018-12-12T17:57:01.688Z,4.50
2018-12-12T17:59:37.936Z,4.50
2018-12-12T18:02:15.672Z,4.50
2018-12-12T18:04:55.105Z,4.48
2018-12-12T18:10:23.237Z,4.43
2018-12-12T18:13:01.635Z,4.43
2018-12-12T18:15:38.193Z,4.41
2018-12-12T18:18:17.894Z,4.39
2018-12-12T18:20:55.719Z,4.40
2018-12-12T18:23:32.906Z,4.37
2018-12-12T18:26:10.523Z,4.29
2018-12-12T18:28:48.287Z,4.18
2018-12-12T18:31:26.906Z,4.03
2018-12-12T18:34:05.699Z,3.87
2018-12-12T18:36:42.232Z,3.75
2018-12-12T18:39:22.417Z,3.73
2018-12-12T18:41:59.064Z,3.81
2018-12-12T18:44:37.374Z,3.79
2018-12-12T18:47:17.123Z,3.72
2018-12-12T18:49:53.026Z,3.60
2018-12-12T18:52:31.314Z,3.48
2018-12-12T18:55:12.217Z,3.37
2018-12-12T19:00:36.516Z,3.23
2018-12-12T19:03:14.795Z,3.17
2018-12-12T19:06:00.400Z,3.09
2018-12-12T19:08:38.941Z,3.01
2018-12-12T19:11:16.116Z,2.94
2018-12-12T19:16:42.392Z,2.46
2018-12-12T19:19:20.568Z,2.86
2018-12-12T19:21:58.570Z,2.84
2018-12-12T19:24:36.090Z,2.86
2018-12-12T19:27:11.262Z,2.97
2018-12-12T19:29:46.229Z,3.03
2018-12-12T19:32:21.581Z,3.01
2018-12-12T19:34:56.257Z,2.92
2018-12-12T19:37:33.765Z,2.83
2018-12-12T19:40:11.628Z,2.75
2018-12-12T19:42:47.035Z,2.68
2018-12-12T19:45:19.681Z,2.63
2018-12-12T19:47:53.820Z,2.62
2018-12-12T19:50:31.167Z,2.62
2018-12-12T19:53:09.736Z,2.61
2018-12-12T19:55:45.740Z,2.56
2018-12-12T19:58:22.946Z,2.55
2018-12-12T20:00:59.615Z,2.53
2018-12-12T20:03:35.871Z,2.51
2018-12-12T20:06:13.089Z,2.54
2018-12-12T20:08:49.048Z,2.59
2018-12-12T20:11:24.753Z,2.67
2018-12-12T20:13:59.650Z,2.75
2018-12-12T20:16:35.843Z,2.91
2018-12-12T20:19:12.484Z,3.10
2018-12-12T20:21:49.303Z,3.24
2018-12-12T20:24:24.392Z,3.38
2018-12-12T20:26:59.135Z,3.51
2018-12-12T20:29:36.651Z,3.64
2018-12-12T20:32:11.718Z,3.74
2018-12-12T20:34:46.967Z,3.83
2018-12-12T20:37:22.017Z,3.90
2018-12-12T20:39:57.327Z,4.00
2018-12-12T20:42:33.222Z,4.04
2018-12-12T20:47:49.730Z,4.11
2018-12-12T20:50:25.012Z,4.09
2018-12-12T20:53:00.882Z,4.00
2018-12-12T20:55:35.812Z,3.86
2018-12-12T20:58:13.233Z,3.78
2018-12-12T21:00:49.251Z,3.69
2018-12-12T21:03:26.260Z,3.60
2018-12-12T21:06:02.832Z,3.52
2018-12-12T21:08:37.455Z,3.46
2018-12-12T21:11:13.152Z,3.41
2018-12-12T21:13:51.038Z,3.38
2018-12-12T21:16:27.305Z,3.49
2018-12-12T21:19:05.387Z,3.59
2018-12-12T21:21:42.157Z,3.66
2018-12-12T21:24:19.188Z,3.67
2018-12-12T21:26:55.688Z,3.69
2018-12-12T21:29:34.188Z,3.69
2018-12-12T21:32:11.142Z,3.64
2018-12-12T21:34:49.644Z,3.54
2018-12-12T21:37:26.630Z,3.45
2018-12-12T21:40:04.948Z,3.37
2018-12-12T21:42:41.980Z,3.29
2018-12-12T21:47:58.995Z,3.21
2018-12-12T21:50:37.129Z,3.12
2018-12-12T21:53:13.535Z,3.04
2018-12-12T21:55:51.509Z,2.98
2018-12-12T21:58:28.299Z,2.91
2018-12-12T22:01:27.540Z,2.85
2018-12-12T22:04:03.079Z,2.81
2018-12-12T22:06:43.128Z,2.75
2018-12-12T22:09:19.971Z,2.68
2018-12-12T22:11:59.031Z,2.63
2018-12-12T22:17:22.285Z,2.49
2018-12-12T22:19:59.404Z,2.45
2018-12-12T22:22:38.888Z,2.41
2018-12-12T22:25:16.044Z,2.38
2018-12-12T22:27:51.036Z,2.34
2018-12-12T22:30:25.551Z,2.29
2018-12-12T22:33:03.867Z,2.25
2018-12-12T22:35:38.505Z,2.22
2018-12-12T22:38:12.260Z,2.19
2018-12-12T22:40:46.337Z,2.15
2018-12-12T22:43:22.749Z,2.12
2018-12-12T22:45:57.559Z,2.06
2018-12-12T22:48:31.848Z,2.03
2018-12-12T22:51:08.239Z,2.00
2018-12-12T22:53:43.309Z,1.96
2018-12-12T22:56:19.069Z,1.92
2018-12-12T22:58:53.965Z,1.88
2018-12-12T23:01:30.286Z,1.95
2018-12-12T23:04:06.677Z,2.03
2018-12-12T23:06:41.110Z,2.16
2018-12-12T23:09:15.747Z,2.27
2018-12-12T23:11:48.943Z,2.38
2018-12-12T23:14:25.434Z,2.49
2018-12-12T23:17:00.051Z,2.61
2018-12-12T23:19:36.618Z,2.69
2018-12-12T23:22:12.455Z,2.77
2018-12-12T23:24:46.049Z,2.83
2018-12-12T23:27:22.412Z,2.88
2018-12-12T23:30:01.087Z,2.94
2018-12-12T23:32:37.635Z,2.99
2018-12-12T23:35:14.375Z,3.03
2018-12-12T23:37:50.656Z,3.05
2018-12-12T23:40:26.926Z,3.09
2018-12-12T23:43:06.155Z,3.11
2018-12-12T23:45:44.247Z,3.13
2018-12-12T23:48:24.623Z,3.13
2018-12-12T23:51:02.912Z,3.19
2018-12-12T23:53:39.429Z,3.21
2018-12-12T23:56:17.098Z,3.25
2018-12-12T23:58:54.538Z,3.28
